sensor_id;sensor_type;location;lat;lon;timestamp;P1;durP1;ratioP1;P2;durP2;ratioP2
75450;SDS011;64029;48.244;9.188;2022-10-20T00:02:02;23.00;;;16.60;;
75450;SDS011;64029;48.244;9.188;2022-10-20T00:04:29;24.87;;;17.20;;
75450;SDS011;64029;48.244;9.188;2022-10-20T00:06:57;22.80;;;15.80;;
75450;SDS011;64029;48.244;9.188;2022-10-20T00:09:24;24.20;;;16.67;;
75450;SDS011;64029;48.244;9.188;2022-10-20T00:11:51;23.17;;;16.10;;
75450;SDS011;64029;48.244;9.188;2022-10-20T00:14:18;24.10;;;17.37;;
75450;SDS011;64029;48.244;9.188;2022-10-20T00:16:44;25.30;;;17.27;;
75450;SDS011;64029;48.244;9.188;2022-10-20T00:19:11;22.50;;;16.63;;
75450;SDS011;64029;48.244;9.188;2022-10-20T00:21:38;25.00;;;17.30;;
75450;SDS011;64029;48.244;9.188;2022-10-20T00:24:06;24.77;;;17.10;;
75450;SDS011;64029;48.244;9.188;2022-10-20T00:26:33;19.93;;;15.40;;
75450;SDS011;64029;48.244;9.188;2022-10-20T00:29:00;24.53;;;16.13;;
75450;SDS011;64029;48.244;9.188;2022-10-20T00:31:28;21.87;;;15.87;;
75450;SDS011;64029;48.244;9.188;2022-10-20T00:33:55;23.40;;;16.30;;
75450;SDS011;64029;48.244;9.188;2022-10-20T00:36:23;19.33;;;15.10;;
75450;SDS011;64029;48.244;9.188;2022-10-20T00:38:50;24.30;;;16.63;;
75450;SDS011;64029;48.244;9.188;2022-10-20T00:41:23;23.40;;;16.80;;
75450;SDS011;64029;48.244;9.188;2022-10-20T00:43:50;27.40;;;17.33;;
75450;SDS011;64029;48.244;9.188;2022-10-20T00:46:19;25.80;;;17.30;;
75450;SDS011;64029;48.244;9.188;2022-10-20T00:48:49;28.90;;;17.50;;
75450;SDS011;64029;48.244;9.188;2022-10-20T00:51:28;25.07;;;17.70;;
75450;SDS011;64029;48.244;9.188;2022-10-20T00:53:57;29.50;;;18.50;;
75450;SDS011;64029;48.244;9.188;2022-10-20T00:56:29;26.53;;;17.60;;
75450;SDS011;64029;48.244;9.188;2022-10-20T00:58:57;25.80;;;17.13;;
75450;SDS011;64029;48.244;9.188;2022-10-20T01:01:25;24.57;;;17.20;;
75450;SDS011;64029;48.244;9.188;2022-10-20T01:03:52;25.63;;;16.73;;
75450;SDS011;64029;48.244;9.188;2022-10-20T01:06:20;25.07;;;17.83;;
75450;SDS011;64029;48.244;9.188;2022-10-20T01:08:47;27.13;;;18.10;;
75450;SDS011;64029;48.244;9.188;2022-10-20T01:11:17;26.50;;;18.63;;
75450;SDS011;64029;48.244;9.188;2022-10-20T01:13:55;27.37;;;18.47;;
75450;SDS011;64029;48.244;9.188;2022-10-20T01:16:33;29.83;;;19.17;;
75450;SDS011;64029;48.244;9.188;2022-10-20T01:19:09;29.50;;;18.97;;
75450;SDS011;64029;48.244;9.188;2022-10-20T01:22:01;26.20;;;18.00;;
75450;SDS011;64029;48.244;9.188;2022-10-20T01:24:53;27.40;;;18.97;;
75450;SDS011;64029;48.244;9.188;2022-10-20T01:27:28;26.00;;;17.60;;
75450;SDS011;64029;48.244;9.188;2022-10-20T01:30:03;28.93;;;17.60;;
75450;SDS011;64029;48.244;9.188;2022-10-20T01:32:35;28.83;;;18.87;;
75450;SDS011;64029;48.244;9.188;2022-10-20T01:35:12;36.90;;;18.60;;
75450;SDS011;64029;48.244;9.188;2022-10-20T01:37:46;27.83;;;17.17;;
75450;SDS011;64029;48.244;9.188;2022-10-20T01:40:20;28.27;;;18.23;;
75450;SDS011;64029;48.244;9.188;2022-10-20T01:42:54;26.03;;;17.77;;
75450;SDS011;64029;48.244;9.188;2022-10-20T01:45:24;27.47;;;18.13;;
75450;SDS011;64029;48.244;9.188;2022-10-20T01:47:55;27.20;;;17.73;;
75450;SDS011;64029;48.244;9.188;2022-10-20T01:50:23;34.17;;;18.80;;
75450;SDS011;64029;48.244;9.188;2022-10-20T01:52:53;29.17;;;18.20;;
75450;SDS011;64029;48.244;9.188;2022-10-20T01:55:21;27.10;;;18.30;;
75450;SDS011;64029;48.244;9.188;2022-10-20T01:57:55;31.00;;;20.63;;
75450;SDS011;64029;48.244;9.188;2022-10-20T02:00:33;31.60;;;19.20;;
75450;SDS011;64029;48.244;9.188;2022-10-20T02:03:08;29.73;;;20.00;;
75450;SDS011;64029;48.244;9.188;2022-10-20T02:05:57;28.07;;;18.87;;
75450;SDS011;64029;48.244;9.188;2022-10-20T02:08:31;33.10;;;21.17;;
75450;SDS011;64029;48.244;9.188;2022-10-20T02:11:04;28.63;;;19.00;;
75450;SDS011;64029;48.244;9.188;2022-10-20T02:13:34;30.90;;;19.63;;
75450;SDS011;64029;48.244;9.188;2022-10-20T02:16:06;31.83;;;19.90;;
75450;SDS011;64029;48.244;9.188;2022-10-20T02:18:35;31.63;;;19.83;;
75450;SDS011;64029;48.244;9.188;2022-10-20T02:21:06;33.20;;;20.10;;
75450;SDS011;64029;48.244;9.188;2022-10-20T02:23:34;27.00;;;17.77;;
75450;SDS011;64029;48.244;9.188;2022-10-20T02:26:03;25.60;;;17.87;;
75450;SDS011;64029;48.244;9.188;2022-10-20T02:28:34;27.73;;;17.30;;
75450;SDS011;64029;48.244;9.188;2022-10-20T02:31:02;24.33;;;16.70;;
75450;SDS011;64029;48.244;9.188;2022-10-20T02:33:30;27.00;;;17.17;;
75450;SDS011;64029;48.244;9.188;2022-10-20T02:35:58;24.63;;;17.10;;
75450;SDS011;64029;48.244;9.188;2022-10-20T02:38:25;25.67;;;17.60;;
75450;SDS011;64029;48.244;9.188;2022-10-20T02:40:52;29.90;;;18.70;;
75450;SDS011;64029;48.244;9.188;2022-10-20T02:43:19;26.53;;;17.20;;
75450;SDS011;64029;48.244;9.188;2022-10-20T02:45:47;25.00;;;16.40;;
75450;SDS011;64029;48.244;9.188;2022-10-20T02:48:14;25.80;;;17.50;;
75450;SDS011;64029;48.244;9.188;2022-10-20T02:50:40;24.37;;;16.83;;
75450;SDS011;64029;48.244;9.188;2022-10-20T02:53:07;29.07;;;18.03;;
75450;SDS011;64029;48.244;9.188;2022-10-20T02:55:34;28.60;;;17.80;;
75450;SDS011;64029;48.244;9.188;2022-10-20T02:58:01;30.40;;;18.03;;
75450;SDS011;64029;48.244;9.188;2022-10-20T03:00:28;24.93;;;16.77;;
75450;SDS011;64029;48.244;9.188;2022-10-20T03:02:57;30.63;;;17.60;;
75450;SDS011;64029;48.244;9.188;2022-10-20T03:05:24;28.97;;;16.87;;
75450;SDS011;64029;48.244;9.188;2022-10-20T03:07:51;27.07;;;17.53;;
75450;SDS011;64029;48.244;9.188;2022-10-20T03:10:18;29.00;;;17.27;;
75450;SDS011;64029;48.244;9.188;2022-10-20T03:12:45;28.53;;;17.60;;
75450;SDS011;64029;48.244;9.188;2022-10-20T03:15:12;28.27;;;17.90;;
75450;SDS011;64029;48.244;9.188;2022-10-20T03:17:39;34.00;;;19.10;;
75450;SDS011;64029;48.244;9.188;2022-10-20T03:20:07;22.80;;;15.67;;
75450;SDS011;64029;48.244;9.188;2022-10-20T03:22:35;30.03;;;18.10;;
75450;SDS011;64029;48.244;9.188;2022-10-20T03:25:02;27.40;;;18.13;;
75450;SDS011;64029;48.244;9.188;2022-10-20T03:27:29;31.27;;;18.60;;
75450;SDS011;64029;48.244;9.188;2022-10-20T03:29:56;28.40;;;17.80;;
75450;SDS011;64029;48.244;9.188;2022-10-20T03:32:23;28.30;;;18.33;;
75450;SDS011;64029;48.244;9.188;2022-10-20T03:34:49;32.17;;;18.20;;
75450;SDS011;64029;48.244;9.188;2022-10-20T03:37:18;29.40;;;18.90;;
75450;SDS011;64029;48.244;9.188;2022-10-20T03:39:44;26.07;;;17.10;;
75450;SDS011;64029;48.244;9.188;2022-10-20T03:42:11;27.37;;;18.10;;
75450;SDS011;64029;48.244;9.188;2022-10-20T03:44:39;26.57;;;17.90;;
75450;SDS011;64029;48.244;9.188;2022-10-20T03:47:08;26.57;;;17.70;;
75450;SDS011;64029;48.244;9.188;2022-10-20T03:49:35;28.80;;;17.27;;
75450;SDS011;64029;48.244;9.188;2022-10-20T03:52:02;28.33;;;18.60;;
75450;SDS011;64029;48.244;9.188;2022-10-20T03:54:31;25.97;;;17.40;;
75450;SDS011;64029;48.244;9.188;2022-10-20T03:57:00;28.00;;;17.80;;
75450;SDS011;64029;48.244;9.188;2022-10-20T03:59:27;26.73;;;17.53;;
75450;SDS011;64029;48.244;9.188;2022-10-20T04:01:54;25.73;;;16.80;;
75450;SDS011;64029;48.244;9.188;2022-10-20T04:04:21;30.10;;;18.23;;
75450;SDS011;64029;48.244;9.188;2022-10-20T04:06:48;27.53;;;17.30;;
75450;SDS011;64029;48.244;9.188;2022-10-20T04:09:14;25.17;;;16.63;;
75450;SDS011;64029;48.244;9.188;2022-10-20T04:11:42;24.90;;;17.00;;
75450;SDS011;64029;48.244;9.188;2022-10-20T04:14:09;24.50;;;16.37;;
75450;SDS011;64029;48.244;9.188;2022-10-20T04:16:36;32.60;;;18.10;;
75450;SDS011;64029;48.244;9.188;2022-10-20T04:19:03;29.10;;;17.77;;
75450;SDS011;64029;48.244;9.188;2022-10-20T04:21:30;24.53;;;17.20;;
75450;SDS011;64029;48.244;9.188;2022-10-20T04:23:56;27.63;;;17.97;;
75450;SDS011;64029;48.244;9.188;2022-10-20T04:26:23;24.50;;;16.30;;
75450;SDS011;64029;48.244;9.188;2022-10-20T04:28:51;27.77;;;18.63;;
75450;SDS011;64029;48.244;9.188;2022-10-20T04:31:20;26.33;;;19.33;;
75450;SDS011;64029;48.244;9.188;2022-10-20T04:33:47;25.37;;;17.13;;
75450;SDS011;64029;48.244;9.188;2022-10-20T04:36:14;31.03;;;17.40;;
75450;SDS011;64029;48.244;9.188;2022-10-20T04:38:41;29.83;;;17.37;;
75450;SDS011;64029;48.244;9.188;2022-10-20T04:41:08;29.87;;;19.70;;
75450;SDS011;64029;48.244;9.188;2022-10-20T04:43:35;28.37;;;18.80;;
75450;SDS011;64029;48.244;9.188;2022-10-20T04:46:04;31.00;;;19.43;;
75450;SDS011;64029;48.244;9.188;2022-10-20T04:48:31;26.80;;;18.37;;
75450;SDS011;64029;48.244;9.188;2022-10-20T04:50:59;33.73;;;19.73;;
75450;SDS011;64029;48.244;9.188;2022-10-20T04:53:26;29.30;;;18.80;;
75450;SDS011;64029;48.244;9.188;2022-10-20T04:55:53;26.50;;;18.20;;
75450;SDS011;64029;48.244;9.188;2022-10-20T04:58:21;31.13;;;18.10;;
75450;SDS011;64029;48.244;9.188;2022-10-20T05:00:48;30.90;;;19.23;;
75450;SDS011;64029;48.244;9.188;2022-10-20T05:03:16;35.30;;;17.50;;
75450;SDS011;64029;48.244;9.188;2022-10-20T05:05:44;30.20;;;19.00;;
75450;SDS011;64029;48.244;9.188;2022-10-20T05:08:10;26.67;;;17.63;;
75450;SDS011;64029;48.244;9.188;2022-10-20T05:10:37;31.77;;;19.00;;
75450;SDS011;64029;48.244;9.188;2022-10-20T05:13:04;28.10;;;17.37;;
75450;SDS011;64029;48.244;9.188;2022-10-20T05:15:31;29.37;;;18.40;;
75450;SDS011;64029;48.244;9.188;2022-10-20T05:17:58;25.67;;;17.53;;
75450;SDS011;64029;48.244;9.188;2022-10-20T05:20:26;27.30;;;17.67;;
75450;SDS011;64029;48.244;9.188;2022-10-20T05:22:53;25.77;;;17.00;;
75450;SDS011;64029;48.244;9.188;2022-10-20T05:25:20;29.10;;;18.87;;
75450;SDS011;64029;48.244;9.188;2022-10-20T05:27:47;28.47;;;18.37;;
75450;SDS011;64029;48.244;9.188;2022-10-20T05:30:14;32.73;;;20.73;;
75450;SDS011;64029;48.244;9.188;2022-10-20T05:32:41;27.60;;;18.20;;
75450;SDS011;64029;48.244;9.188;2022-10-20T05:35:08;25.67;;;17.97;;
75450;SDS011;64029;48.244;9.188;2022-10-20T05:37:36;28.67;;;18.77;;
75450;SDS011;64029;48.244;9.188;2022-10-20T05:40:03;28.63;;;18.23;;
75450;SDS011;64029;48.244;9.188;2022-10-20T05:42:31;29.47;;;18.80;;
75450;SDS011;64029;48.244;9.188;2022-10-20T05:44:58;25.63;;;18.30;;
75450;SDS011;64029;48.244;9.188;2022-10-20T05:47:25;29.90;;;17.80;;
75450;SDS011;64029;48.244;9.188;2022-10-20T05:49:51;30.70;;;19.30;;
75450;SDS011;64029;48.244;9.188;2022-10-20T05:52:18;30.30;;;19.30;;
75450;SDS011;64029;48.244;9.188;2022-10-20T05:54:46;28.53;;;18.00;;
75450;SDS011;64029;48.244;9.188;2022-10-20T05:57:13;24.23;;;17.67;;
75450;SDS011;64029;48.244;9.188;2022-10-20T05:59:40;26.20;;;17.73;;
75450;SDS011;64029;48.244;9.188;2022-10-20T06:02:07;27.50;;;17.40;;
75450;SDS011;64029;48.244;9.188;2022-10-20T06:04:34;28.03;;;18.00;;
75450;SDS011;64029;48.244;9.188;2022-10-20T06:07:01;25.83;;;17.07;;
75450;SDS011;64029;48.244;9.188;2022-10-20T06:09:30;28.10;;;18.47;;
75450;SDS011;64029;48.244;9.188;2022-10-20T06:11:58;27.63;;;18.80;;
75450;SDS011;64029;48.244;9.188;2022-10-20T06:14:25;26.37;;;18.27;;
75450;SDS011;64029;48.244;9.188;2022-10-20T06:16:52;26.40;;;18.03;;
75450;SDS011;64029;48.244;9.188;2022-10-20T06:19:19;23.50;;;18.03;;
75450;SDS011;64029;48.244;9.188;2022-10-20T06:21:47;23.50;;;17.37;;
75450;SDS011;64029;48.244;9.188;2022-10-20T06:24:14;25.20;;;17.40;;
75450;SDS011;64029;48.244;9.188;2022-10-20T06:26:41;23.90;;;16.70;;
75450;SDS011;64029;48.244;9.188;2022-10-20T06:29:11;26.13;;;18.97;;
75450;SDS011;64029;48.244;9.188;2022-10-20T06:31:40;27.33;;;17.80;;
75450;SDS011;64029;48.244;9.188;2022-10-20T06:34:09;25.90;;;17.97;;
75450;SDS011;64029;48.244;9.188;2022-10-20T06:36:38;23.63;;;16.80;;
75450;SDS011;64029;48.244;9.188;2022-10-20T06:39:07;23.90;;;17.50;;
75450;SDS011;64029;48.244;9.188;2022-10-20T06:41:36;26.80;;;17.73;;
75450;SDS011;64029;48.244;9.188;2022-10-20T06:44:03;25.93;;;16.50;;
75450;SDS011;64029;48.244;9.188;2022-10-20T06:46:33;24.90;;;15.20;;
75450;SDS011;64029;48.244;9.188;2022-10-20T06:49:02;23.93;;;16.03;;
75450;SDS011;64029;48.244;9.188;2022-10-20T06:51:30;26.50;;;18.43;;
75450;SDS011;64029;48.244;9.188;2022-10-20T06:53:58;21.60;;;15.83;;
75450;SDS011;64029;48.244;9.188;2022-10-20T06:56:25;24.13;;;16.43;;
75450;SDS011;64029;48.244;9.188;2022-10-20T06:58:54;21.40;;;16.50;;
75450;SDS011;64029;48.244;9.188;2022-10-20T07:01:22;23.77;;;15.50;;
75450;SDS011;64029;48.244;9.188;2022-10-20T07:03:52;23.47;;;16.90;;
75450;SDS011;64029;48.244;9.188;2022-10-20T07:06:24;23.97;;;15.80;;
75450;SDS011;64029;48.244;9.188;2022-10-20T07:08:53;22.93;;;17.03;;
75450;SDS011;64029;48.244;9.188;2022-10-20T07:11:21;23.30;;;16.03;;
75450;SDS011;64029;48.244;9.188;2022-10-20T07:13:50;21.60;;;16.10;;
75450;SDS011;64029;48.244;9.188;2022-10-20T07:16:18;22.20;;;15.40;;
75450;SDS011;64029;48.244;9.188;2022-10-20T07:18:46;23.43;;;15.60;;
75450;SDS011;64029;48.244;9.188;2022-10-20T07:21:15;20.67;;;15.23;;
75450;SDS011;64029;48.244;9.188;2022-10-20T07:23:43;22.30;;;16.23;;
75450;SDS011;64029;48.244;9.188;2022-10-20T07:26:11;25.03;;;17.20;;
75450;SDS011;64029;48.244;9.188;2022-10-20T07:28:39;22.37;;;16.07;;
75450;SDS011;64029;48.244;9.188;2022-10-20T07:31:08;20.50;;;15.63;;
75450;SDS011;64029;48.244;9.188;2022-10-20T07:33:37;23.27;;;15.73;;
75450;SDS011;64029;48.244;9.188;2022-10-20T07:36:09;19.57;;;14.60;;
75450;SDS011;64029;48.244;9.188;2022-10-20T07:38:39;24.23;;;16.47;;
75450;SDS011;64029;48.244;9.188;2022-10-20T07:41:06;20.90;;;14.50;;
75450;SDS011;64029;48.244;9.188;2022-10-20T07:43:33;20.00;;;14.90;;
75450;SDS011;64029;48.244;9.188;2022-10-20T07:46:00;19.57;;;14.40;;
75450;SDS011;64029;48.244;9.188;2022-10-20T07:48:27;19.67;;;14.43;;
75450;SDS011;64029;48.244;9.188;2022-10-20T07:50:53;19.57;;;14.80;;
75450;SDS011;64029;48.244;9.188;2022-10-20T07:53:39;24.03;;;16.20;;
75450;SDS011;64029;48.244;9.188;2022-10-20T07:56:06;24.20;;;16.00;;
75450;SDS011;64029;48.244;9.188;2022-10-20T07:58:32;21.30;;;15.87;;
75450;SDS011;64029;48.244;9.188;2022-10-20T08:00:59;24.60;;;15.80;;
75450;SDS011;64029;48.244;9.188;2022-10-20T08:03:26;21.27;;;15.43;;
75450;SDS011;64029;48.244;9.188;2022-10-20T08:05:53;22.03;;;15.60;;
75450;SDS011;64029;48.244;9.188;2022-10-20T08:08:20;19.13;;;14.37;;
75450;SDS011;64029;48.244;9.188;2022-10-20T08:10:48;23.70;;;16.13;;
75450;SDS011;64029;48.244;9.188;2022-10-20T08:13:15;25.43;;;16.70;;
75450;SDS011;64029;48.244;9.188;2022-10-20T08:15:42;23.37;;;15.17;;
75450;SDS011;64029;48.244;9.188;2022-10-20T08:18:08;22.60;;;15.70;;
75450;SDS011;64029;48.244;9.188;2022-10-20T08:20:35;24.20;;;16.97;;
75450;SDS011;64029;48.244;9.188;2022-10-20T08:23:02;21.90;;;15.57;;
75450;SDS011;64029;48.244;9.188;2022-10-20T08:25:29;21.60;;;15.40;;
75450;SDS011;64029;48.244;9.188;2022-10-20T08:27:58;23.80;;;16.07;;
75450;SDS011;64029;48.244;9.188;2022-10-20T08:30:25;21.80;;;16.30;;
75450;SDS011;64029;48.244;9.188;2022-10-20T08:32:52;19.33;;;14.10;;
75450;SDS011;64029;48.244;9.188;2022-10-20T08:35:19;24.23;;;15.83;;
75450;SDS011;64029;48.244;9.188;2022-10-20T08:37:46;22.37;;;15.07;;
75450;SDS011;64029;48.244;9.188;2022-10-20T08:40:14;25.37;;;16.93;;
75450;SDS011;64029;48.244;9.188;2022-10-20T08:42:42;22.10;;;16.20;;
75450;SDS011;64029;48.244;9.188;2022-10-20T08:45:14;22.17;;;15.53;;
75450;SDS011;64029;48.244;9.188;2022-10-20T08:47:42;21.63;;;15.17;;
75450;SDS011;64029;48.244;9.188;2022-10-20T08:50:12;21.00;;;15.87;;
75450;SDS011;64029;48.244;9.188;2022-10-20T08:52:41;22.40;;;16.53;;
75450;SDS011;64029;48.244;9.188;2022-10-20T08:55:10;25.00;;;15.70;;
75450;SDS011;64029;48.244;9.188;2022-10-20T08:57:46;21.63;;;15.53;;
75450;SDS011;64029;48.244;9.188;2022-10-20T09:00:16;19.30;;;15.47;;
75450;SDS011;64029;48.244;9.188;2022-10-20T09:02:45;19.53;;;13.67;;
75450;SDS011;64029;48.244;9.188;2022-10-20T09:05:13;22.70;;;16.93;;
75450;SDS011;64029;48.244;9.188;2022-10-20T09:07:42;19.83;;;14.90;;
75450;SDS011;64029;48.244;9.188;2022-10-20T09:10:15;18.47;;;13.90;;
75450;SDS011;64029;48.244;9.188;2022-10-20T09:12:49;20.90;;;15.33;;
75450;SDS011;64029;48.244;9.188;2022-10-20T09:15:19;18.57;;;13.70;;
75450;SDS011;64029;48.244;9.188;2022-10-20T09:17:48;20.80;;;13.07;;
75450;SDS011;64029;48.244;9.188;2022-10-20T09:20:18;20.00;;;13.90;;
75450;SDS011;64029;48.244;9.188;2022-10-20T09:22:47;17.67;;;13.13;;
75450;SDS011;64029;48.244;9.188;2022-10-20T09:25:14;17.77;;;13.60;;
75450;SDS011;64029;48.244;9.188;2022-10-20T09:27:44;18.07;;;13.83;;
75450;SDS011;64029;48.244;9.188;2022-10-20T09:30:14;17.00;;;14.17;;
75450;SDS011;64029;48.244;9.188;2022-10-20T09:32:45;19.67;;;13.30;;
75450;SDS011;64029;48.244;9.188;2022-10-20T09:35:20;19.40;;;13.20;;
75450;SDS011;64029;48.244;9.188;2022-10-20T09:37:54;17.13;;;13.90;;
75450;SDS011;64029;48.244;9.188;2022-10-20T09:40:24;20.80;;;15.53;;
75450;SDS011;64029;48.244;9.188;2022-10-20T09:42:52;19.83;;;15.00;;
75450;SDS011;64029;48.244;9.188;2022-10-20T09:45:21;18.93;;;13.93;;
75450;SDS011;64029;48.244;9.188;2022-10-20T09:47:55;17.37;;;13.40;;
75450;SDS011;64029;48.244;9.188;2022-10-20T09:50:28;23.17;;;16.33;;
75450;SDS011;64029;48.244;9.188;2022-10-20T09:52:57;26.73;;;16.70;;
75450;SDS011;64029;48.244;9.188;2022-10-20T09:55:27;21.00;;;15.40;;
75450;SDS011;64029;48.244;9.188;2022-10-20T09:57:57;19.40;;;14.40;;
75450;SDS011;64029;48.244;9.188;2022-10-20T10:00:26;21.47;;;14.10;;
75450;SDS011;64029;48.244;9.188;2022-10-20T10:03:07;18.37;;;14.47;;
75450;SDS011;64029;48.244;9.188;2022-10-20T10:05:38;23.90;;;13.87;;
75450;SDS011;64029;48.244;9.188;2022-10-20T10:08:08;21.67;;;14.27;;
75450;SDS011;64029;48.244;9.188;2022-10-20T10:10:39;21.87;;;15.03;;
75450;SDS011;64029;48.244;9.188;2022-10-20T10:13:18;22.40;;;14.20;;
75450;SDS011;64029;48.244;9.188;2022-10-20T10:15:48;18.40;;;12.53;;
75450;SDS011;64029;48.244;9.188;2022-10-20T10:18:30;18.47;;;13.90;;
75450;SDS011;64029;48.244;9.188;2022-10-20T10:20:58;19.73;;;15.10;;
75450;SDS011;64029;48.244;9.188;2022-10-20T10:23:28;18.83;;;13.63;;
75450;SDS011;64029;48.244;9.188;2022-10-20T10:25:58;17.17;;;13.20;;
75450;SDS011;64029;48.244;9.188;2022-10-20T10:28:29;17.53;;;13.87;;
75450;SDS011;64029;48.244;9.188;2022-10-20T10:31:18;17.20;;;13.80;;
75450;SDS011;64029;48.244;9.188;2022-10-20T10:33:49;21.60;;;14.73;;
75450;SDS011;64029;48.244;9.188;2022-10-20T10:36:25;18.20;;;13.40;;
75450;SDS011;64029;48.244;9.188;2022-10-20T10:38:54;19.57;;;14.47;;
75450;SDS011;64029;48.244;9.188;2022-10-20T10:41:24;21.03;;;12.80;;
75450;SDS011;64029;48.244;9.188;2022-10-20T10:44:03;18.87;;;13.27;;
75450;SDS011;64029;48.244;9.188;2022-10-20T10:46:36;17.20;;;14.03;;
75450;SDS011;64029;48.244;9.188;2022-10-20T10:49:22;19.63;;;14.33;;
75450;SDS011;64029;48.244;9.188;2022-10-20T10:52:12;13.13;;;11.50;;
75450;SDS011;64029;48.244;9.188;2022-10-20T10:54:54;17.10;;;12.77;;
75450;SDS011;64029;48.244;9.188;2022-10-20T10:57:29;17.70;;;13.27;;
75450;SDS011;64029;48.244;9.188;2022-10-20T10:59:58;15.20;;;12.33;;
75450;SDS011;64029;48.244;9.188;2022-10-20T11:02:38;14.27;;;12.60;;
75450;SDS011;64029;48.244;9.188;2022-10-20T11:05:30;18.20;;;13.10;;
75450;SDS011;64029;48.244;9.188;2022-10-20T11:08:18;15.07;;;12.53;;
75450;SDS011;64029;48.244;9.188;2022-10-20T11:10:53;16.60;;;12.87;;
75450;SDS011;64029;48.244;9.188;2022-10-20T11:13:28;15.63;;;12.97;;
75450;SDS011;64029;48.244;9.188;2022-10-20T11:16:03;17.67;;;13.80;;
75450;SDS011;64029;48.244;9.188;2022-10-20T11:21:36;17.50;;;12.40;;
75450;SDS011;64029;48.244;9.188;2022-10-20T11:24:16;17.57;;;13.17;;
75450;SDS011;64029;48.244;9.188;2022-10-20T11:26:55;14.63;;;12.10;;
75450;SDS011;64029;48.244;9.188;2022-10-20T11:29:29;16.20;;;12.93;;
75450;SDS011;64029;48.244;9.188;2022-10-20T11:32:00;21.50;;;14.47;;
75450;SDS011;64029;48.244;9.188;2022-10-20T11:34:34;16.90;;;12.30;;
75450;SDS011;64029;48.244;9.188;2022-10-20T11:37:06;19.37;;;13.93;;
75450;SDS011;64029;48.244;9.188;2022-10-20T11:39:43;19.50;;;13.23;;
75450;SDS011;64029;48.244;9.188;2022-10-20T11:42:17;20.23;;;13.90;;
75450;SDS011;64029;48.244;9.188;2022-10-20T11:44:50;18.00;;;14.07;;
75450;SDS011;64029;48.244;9.188;2022-10-20T11:47:20;20.17;;;14.20;;
75450;SDS011;64029;48.244;9.188;2022-10-20T11:49:51;22.50;;;14.23;;
75450;SDS011;64029;48.244;9.188;2022-10-20T11:55:22;19.20;;;13.90;;
75450;SDS011;64029;48.244;9.188;2022-10-20T11:58:11;20.70;;;13.50;;
75450;SDS011;64029;48.244;9.188;2022-10-20T12:00:55;27.33;;;17.00;;
75450;SDS011;64029;48.244;9.188;2022-10-20T12:03:45;20.30;;;13.90;;
75450;SDS011;64029;48.244;9.188;2022-10-20T12:09:30;17.53;;;13.13;;
75450;SDS011;64029;48.244;9.188;2022-10-20T12:12:24;19.60;;;14.00;;
75450;SDS011;64029;48.244;9.188;2022-10-20T12:14:57;20.30;;;15.53;;
75450;SDS011;64029;48.244;9.188;2022-10-20T12:17:26;21.73;;;15.90;;
75450;SDS011;64029;48.244;9.188;2022-10-20T12:23:01;23.10;;;15.67;;
75450;SDS011;64029;48.244;9.188;2022-10-20T12:25:39;23.10;;;15.90;;
75450;SDS011;64029;48.244;9.188;2022-10-20T12:31:09;21.60;;;15.30;;
75450;SDS011;64029;48.244;9.188;2022-10-20T12:33:37;23.40;;;16.97;;
75450;SDS011;64029;48.244;9.188;2022-10-20T12:36:33;22.60;;;15.87;;
75450;SDS011;64029;48.244;9.188;2022-10-20T12:39:15;24.00;;;15.50;;
75450;SDS011;64029;48.244;9.188;2022-10-20T12:41:55;21.03;;;15.70;;
75450;SDS011;64029;48.244;9.188;2022-10-20T12:44:23;20.03;;;15.17;;
75450;SDS011;64029;48.244;9.188;2022-10-20T12:46:54;21.90;;;16.07;;
75450;SDS011;64029;48.244;9.188;2022-10-20T12:49:26;19.57;;;15.70;;
75450;SDS011;64029;48.244;9.188;2022-10-20T12:51:55;24.03;;;15.83;;
75450;SDS011;64029;48.244;9.188;2022-10-20T12:54:24;24.63;;;13.50;;
75450;SDS011;64029;48.244;9.188;2022-10-20T12:57:00;20.73;;;14.33;;
75450;SDS011;64029;48.244;9.188;2022-10-20T12:59:38;19.60;;;14.73;;
75450;SDS011;64029;48.244;9.188;2022-10-20T13:05:26;19.97;;;15.03;;
75450;SDS011;64029;48.244;9.188;2022-10-20T13:08:15;26.03;;;17.03;;
75450;SDS011;64029;48.244;9.188;2022-10-20T13:14:02;23.83;;;16.00;;
75450;SDS011;64029;48.244;9.188;2022-10-20T13:16:38;20.17;;;14.53;;
75450;SDS011;64029;48.244;9.188;2022-10-20T13:19:11;21.87;;;14.70;;
75450;SDS011;64029;48.244;9.188;2022-10-20T13:21:41;26.90;;;17.03;;
75450;SDS011;64029;48.244;9.188;2022-10-20T13:24:12;23.13;;;16.07;;
75450;SDS011;64029;48.244;9.188;2022-10-20T13:26:48;23.97;;;16.77;;
75450;SDS011;64029;48.244;9.188;2022-10-20T13:29:21;21.47;;;16.70;;
75450;SDS011;64029;48.244;9.188;2022-10-20T13:31:58;34.63;;;17.67;;
75450;SDS011;64029;48.244;9.188;2022-10-20T13:34:35;26.50;;;17.40;;
75450;SDS011;64029;48.244;9.188;2022-10-20T13:37:11;25.83;;;15.97;;
75450;SDS011;64029;48.244;9.188;2022-10-20T13:39:46;27.37;;;17.50;;
75450;SDS011;64029;48.244;9.188;2022-10-20T13:42:34;23.27;;;17.00;;
75450;SDS011;64029;48.244;9.188;2022-10-20T13:45:13;23.80;;;17.03;;
75450;SDS011;64029;48.244;9.188;2022-10-20T13:47:51;20.17;;;15.80;;
75450;SDS011;64029;48.244;9.188;2022-10-20T13:50:26;21.60;;;16.47;;
75450;SDS011;64029;48.244;9.188;2022-10-20T13:52:56;29.17;;;17.47;;
75450;SDS011;64029;48.244;9.188;2022-10-20T13:55:27;27.87;;;17.50;;
75450;SDS011;64029;48.244;9.188;2022-10-20T13:57:56;25.77;;;15.87;;
75450;SDS011;64029;48.244;9.188;2022-10-20T14:00:29;19.70;;;14.60;;
75450;SDS011;64029;48.244;9.188;2022-10-20T14:02:58;25.30;;;16.80;;
75450;SDS011;64029;48.244;9.188;2022-10-20T14:05:26;23.33;;;17.10;;
75450;SDS011;64029;48.244;9.188;2022-10-20T14:07:58;26.10;;;15.63;;
75450;SDS011;64029;48.244;9.188;2022-10-20T14:10:27;24.33;;;15.93;;
75450;SDS011;64029;48.244;9.188;2022-10-20T14:12:59;32.20;;;18.77;;
75450;SDS011;64029;48.244;9.188;2022-10-20T14:15:29;22.90;;;16.30;;
75450;SDS011;64029;48.244;9.188;2022-10-20T14:17:59;26.17;;;16.80;;
75450;SDS011;64029;48.244;9.188;2022-10-20T14:20:28;33.33;;;17.83;;
75450;SDS011;64029;48.244;9.188;2022-10-20T14:22:56;25.37;;;16.53;;
75450;SDS011;64029;48.244;9.188;2022-10-20T14:25:25;29.67;;;19.03;;
75450;SDS011;64029;48.244;9.188;2022-10-20T14:27:52;27.97;;;18.27;;
75450;SDS011;64029;48.244;9.188;2022-10-20T14:30:20;23.10;;;16.30;;
75450;SDS011;64029;48.244;9.188;2022-10-20T14:32:53;28.10;;;18.50;;
75450;SDS011;64029;48.244;9.188;2022-10-20T14:35:24;27.80;;;16.77;;
75450;SDS011;64029;48.244;9.188;2022-10-20T14:37:57;25.03;;;17.00;;
75450;SDS011;64029;48.244;9.188;2022-10-20T14:40:26;25.40;;;17.40;;
75450;SDS011;64029;48.244;9.188;2022-10-20T14:42:56;19.17;;;15.17;;
75450;SDS011;64029;48.244;9.188;2022-10-20T14:45:26;23.70;;;16.60;;
75450;SDS011;64029;48.244;9.188;2022-10-20T14:47:55;25.53;;;16.53;;
75450;SDS011;64029;48.244;9.188;2022-10-20T14:50:26;24.30;;;17.00;;
75450;SDS011;64029;48.244;9.188;2022-10-20T14:55:57;22.00;;;16.33;;
75450;SDS011;64029;48.244;9.188;2022-10-20T14:58:27;23.10;;;16.07;;
75450;SDS011;64029;48.244;9.188;2022-10-20T15:01:19;23.50;;;16.90;;
75450;SDS011;64029;48.244;9.188;2022-10-20T15:06:47;23.77;;;16.90;;
75450;SDS011;64029;48.244;9.188;2022-10-20T15:09:26;27.00;;;19.57;;